Time;durP1;ratioP1;P1;durP2;ratioP2;P2;SDS_P1;SDS_P2;PMS_P1;PMS_P2;Temp;Humidity;BMP_temperature;BMP_pressure;BME280_temperature;BME280_humidity;BME280_pressure;Samples;Min_cycle;Max_cycle;Signal;HPM_P1;HPM_P2
2023/02/27 00:04:17;;;;;;;27.48;9.60;;;;;;;;;;10359763;28;20081;-76
2023/02/27 00:09:17;;;;;;;31.13;9.45;;;;;;;;;;10359542;28;20014;-75
2023/02/27 00:14:18;;;;;;;39.80;10.27;;;;;;;;;;10361886;28;20105;-78
2023/02/27 00:19:20;;;;;;;37.35;10.93;;;;;;;;;;10321631;28;20021;-75
2023/02/27 00:24:21;;;;;;;25.00;8.88;;;;;;;;;;10358595;28;20041;-75
2023/02/27 00:29:24;;;;;;;31.30;9.52;;;;;;;;;;10359986;28;20101;-76
2023/02/27 00:34:24;;;;;;;28.90;10.60;;;;;;;;;;10380946;28;20018;-76
2023/02/27 00:39:25;;;;;;;23.10;10.17;;;;;;;;;;10399970;28;20038;-73
2023/02/27 00:44:25;;;;;;;23.02;9.48;;;;;;;;;;10369806;28;20448;-76
2023/02/27 00:49:25;;;;;;;37.90;9.80;;;;;;;;;;10364423;28;20471;-74
2023/02/27 00:54:25;;;;;;;41.10;13.93;;;;;;;;;;10376778;28;20018;-69
2023/02/27 00:59:26;;;;;;;32.42;10.45;;;;;;;;;;10362352;28;20030;-72
2023/02/27 01:04:26;;;;;;;28.10;9.48;;;;;;;;;;10359595;28;20506;-72
2023/02/27 01:09:26;;;;;;;30.23;10.23;;;;;;;;;;10357888;28;20052;-77
2023/02/27 01:14:27;;;;;;;38.80;8.88;;;;;;;;;;10358035;28;20026;-75
2023/02/27 01:19:27;;;;;;;34.40;12.70;;;;;;;;;;10357577;28;20057;-71
2023/02/27 01:24:27;;;;;;;40.43;9.50;;;;;;;;;;10360187;28;20076;-78
2023/02/27 01:29:27;;;;;;;29.95;9.27;;;;;;;;;;10359809;28;20142;-77
2023/02/27 01:34:28;;;;;;;24.88;9.20;;;;;;;;;;10358076;28;20025;-78
2023/02/27 01:39:28;;;;;;;36.63;9.98;;;;;;;;;;10345950;28;20026;-80
2023/02/27 01:44:29;;;;;;;41.47;12.13;;;;;;;;;;10354843;28;20034;-76
2023/02/27 01:49:31;;;;;;;49.25;12.77;;;;;;;;;;10343211;28;20504;-80
2023/02/27 01:54:35;;;;;;;25.35;9.27;;;;;;;;;;10358460;28;20030;-80
2023/02/27 01:59:36;;;;;;;32.15;10.35;;;;;;;;;;10364835;28;20026;-75
2023/02/27 02:04:38;;;;;;;36.40;12.40;;;;;;;;;;10359776;28;20061;-79
2023/02/27 02:09:47;;;;;;;28.58;11.80;;;;;;;;;;10358917;28;20026;-76
2023/02/27 02:14:47;;;;;;;34.85;11.40;;;;;;;;;;10363159;28;20030;-75
2023/02/27 02:19:53;;;;;;;31.42;11.57;;;;;;;;;;10362949;28;20034;-79
2023/02/27 02:24:54;;;;;;;52.80;11.07;;;;;;;;;;10383572;28;20041;-73
2023/02/27 02:30:00;;;;;;;24.38;5.18;;;;;;;;;;10364118;28;20022;-76
2023/02/27 02:35:12;;;;;;;28.40;8.30;;;;;;;;;;10378977;28;20772;-76
2023/02/27 02:40:28;;;;;;;41.40;11.32;;;;;;;;;;10378336;28;20074;-75
2023/02/27 02:45:37;;;;;;;30.48;9.30;;;;;;;;;;10359727;28;20432;-73
2023/02/27 02:50:41;;;;;;;26.67;7.30;;;;;;;;;;10362154;28;20014;-76
2023/02/27 02:55:52;;;;;;;15.23;4.35;;;;;;;;;;10366422;28;20033;-73
2023/02/27 03:01:19;;;;;;;3.03;1.17;;;;;;;;;;10379884;28;20026;-76
2023/02/27 03:06:32;;;;;;;4.90;1.70;;;;;;;;;;10391680;28;20033;-69
2023/02/27 03:11:36;;;;;;;3.97;1.05;;;;;;;;;;10368267;28;20435;-79
2023/02/27 03:16:46;;;;;;;3.90;0.85;;;;;;;;;;10384349;28;20583;-80
2023/02/27 03:22:04;;;;;;;0.90;0.50;;;;;;;;;;10362517;28;20028;-82
2023/02/27 03:27:05;;;;;;;4.60;0.87;;;;;;;;;;10373600;28;20052;-75
2023/02/27 03:32:17;;;;;;;9.18;3.88;;;;;;;;;;10365018;28;20097;-76
2023/02/27 03:37:17;;;;;;;8.32;3.78;;;;;;;;;;10374196;28;20083;-76
2023/02/27 03:42:38;;;;;;;8.05;4.13;;;;;;;;;;10376757;28;20095;-75
2023/02/27 03:47:40;;;;;;;10.70;4.13;;;;;;;;;;10336196;28;20085;-73
2023/02/27 03:52:40;;;;;;;9.20;5.28;;;;;;;;;;10349672;28;20030;-75
2023/02/27 03:57:43;;;;;;;7.60;4.50;;;;;;;;;;10355951;28;20034;-78
2023/02/27 04:02:45;;;;;;;8.60;4.82;;;;;;;;;;10370591;28;20167;-75
2023/02/27 04:07:46;;;;;;;8.05;3.63;;;;;;;;;;10404034;28;20088;-75
2023/02/27 04:13:05;;;;;;;10.25;5.15;;;;;;;;;;10358756;28;20080;-73
2023/02/27 04:18:33;;;;;;;9.23;4.72;;;;;;;;;;10324465;28;20018;-79
2023/02/27 04:23:38;;;;;;;7.32;4.95;;;;;;;;;;10332254;28;20433;-76
2023/02/27 04:29:06;;;;;;;7.88;4.55;;;;;;;;;;10361566;28;20037;-74
2023/02/27 04:34:12;;;;;;;6.57;4.00;;;;;;;;;;10356851;28;20618;-74
2023/02/27 04:39:20;;;;;;;6.80;3.95;;;;;;;;;;10359151;28;20462;-76
2023/02/27 04:44:21;;;;;;;9.30;4.88;;;;;;;;;;10359515;28;20088;-74
2023/02/27 04:49:23;;;;;;;11.02;5.57;;;;;;;;;;10386839;28;20445;-68
2023/02/27 04:54:28;;;;;;;9.02;4.88;;;;;;;;;;10379255;28;20037;-73
2023/02/27 04:59:34;;;;;;;18.33;6.55;;;;;;;;;;10379926;28;20025;-74
2023/02/27 05:04:35;;;;;;;13.85;6.20;;;;;;;;;;10366832;28;20037;-73
2023/02/27 05:09:36;;;;;;;12.38;5.80;;;;;;;;;;10360309;28;20054;-78
2023/02/27 05:14:45;;;;;;;11.77;4.68;;;;;;;;;;10352153;28;20105;-78
2023/02/27 05:19:46;;;;;;;13.05;6.82;;;;;;;;;;10359146;28;20447;-72
2023/02/27 05:24:56;;;;;;;12.40;5.13;;;;;;;;;;10345259;28;20033;-77
2023/02/27 05:30:06;;;;;;;8.57;4.65;;;;;;;;;;10327365;28;20424;-77
2023/02/27 05:35:12;;;;;;;9.75;5.70;;;;;;;;;;10358789;28;20064;-80
2023/02/27 05:40:18;;;;;;;6.97;4.43;;;;;;;;;;10358747;28;20463;-76
2023/02/27 05:45:23;;;;;;;9.18;4.68;;;;;;;;;;10357726;28;20065;-77
2023/02/27 05:50:26;;;;;;;9.90;4.60;;;;;;;;;;10361739;28;20485;-77
2023/02/27 05:55:30;;;;;;;6.57;4.35;;;;;;;;;;10361720;28;20026;-77
2023/02/27 06:00:30;;;;;;;7.60;5.22;;;;;;;;;;10361557;28;20025;-75
2023/02/27 06:05:30;;;;;;;10.70;5.65;;;;;;;;;;10399659;28;20049;-76
2023/02/27 06:10:31;;;;;;;10.47;4.17;;;;;;;;;;10358574;28;20042;-78
2023/02/27 06:15:31;;;;;;;5.60;3.40;;;;;;;;;;10354369;28;20033;-77
2023/02/27 06:20:33;;;;;;;5.27;3.47;;;;;;;;;;10359964;28;20034;-79
2023/02/27 06:25:33;;;;;;;5.50;3.65;;;;;;;;;;10357687;28;20022;-77
2023/02/27 06:30:34;;;;;;;3.45;2.60;;;;;;;;;;10363641;28;20559;-80
2023/02/27 06:35:34;;;;;;;10.25;3.58;;;;;;;;;;10379906;28;20124;-75
2023/02/27 06:40:37;;;;;;;8.18;3.70;;;;;;;;;;10364902;28;20290;-80
2023/02/27 06:45:47;;;;;;;5.97;3.33;;;;;;;;;;10364488;28;20475;-79
2023/02/27 06:50:52;;;;;;;5.65;4.15;;;;;;;;;;10381172;28;20034;-77
2023/02/27 06:55:53;;;;;;;7.85;3.85;;;;;;;;;;10398513;28;20125;-75
2023/02/27 07:00:53;;;;;;;7.53;4.73;;;;;;;;;;10368369;28;20124;-77
2023/02/27 07:05:53;;;;;;;8.70;4.78;;;;;;;;;;10365086;28;20288;-78
2023/02/27 07:10:58;;;;;;;7.68;4.78;;;;;;;;;;10373555;28;20034;-79
2023/02/27 07:15:58;;;;;;;7.63;4.30;;;;;;;;;;10382438;28;20117;-81
2023/02/27 07:20:58;;;;;;;6.70;3.70;;;;;;;;;;10382477;28;20563;-78
2023/02/27 07:25:59;;;;;;;5.88;3.63;;;;;;;;;;10359479;28;20026;-76
2023/02/27 07:30:59;;;;;;;15.55;4.45;;;;;;;;;;10378970;28;20102;-74
2023/02/27 07:35:59;;;;;;;17.45;4.75;;;;;;;;;;10375724;28;20034;-73
2023/02/27 07:40:59;;;;;;;7.73;4.37;;;;;;;;;;10375477;28;20041;-74
2023/02/27 07:46:02;;;;;;;15.02;5.72;;;;;;;;;;10359084;28;20053;-75
2023/02/27 07:51:03;;;;;;;15.35;4.10;;;;;;;;;;10359468;28;20022;-75
2023/02/27 07:56:04;;;;;;;12.77;3.30;;;;;;;;;;10358750;28;20026;-75
2023/02/27 08:01:04;;;;;;;11.07;4.82;;;;;;;;;;10354073;28;20022;-78
2023/02/27 08:06:05;;;;;;;22.75;4.75;;;;;;;;;;10358395;28;20129;-75
2023/02/27 08:11:05;;;;;;;14.88;5.22;;;;;;;;;;10374746;28;20022;-76
2023/02/27 08:16:06;;;;;;;37.38;7.13;;;;;;;;;;10374276;28;20099;-74
2023/02/27 08:21:07;;;;;;;10.90;4.35;;;;;;;;;;10376017;28;20081;-79
2023/02/27 08:26:08;;;;;;;9.75;4.60;;;;;;;;;;10375919;28;20530;-75
2023/02/27 08:31:09;;;;;;;10.77;5.13;;;;;;;;;;10362372;28;20037;-74
2023/02/27 08:36:09;;;;;;;12.10;5.17;;;;;;;;;;10378412;28;20447;-80
2023/02/27 08:41:09;;;;;;;8.90;4.25;;;;;;;;;;10359555;28;20030;-74
2023/02/27 08:46:10;;;;;;;12.63;5.93;;;;;;;;;;10370600;28;20072;-78
2023/02/27 08:51:16;;;;;;;46.83;7.13;;;;;;;;;;10363904;28;20033;-76
2023/02/27 08:56:20;;;;;;;28.85;4.88;;;;;;;;;;10366624;28;20049;-81
2023/02/27 09:01:21;;;;;;;13.38;4.10;;;;;;;;;;10360776;28;20033;-78
2023/02/27 09:06:28;;;;;;;22.33;6.10;;;;;;;;;;10385358;28;20057;-76
2023/02/27 09:11:29;;;;;;;26.90;8.45;;;;;;;;;;10378479;28;20507;-77
2023/02/27 09:16:29;;;;;;;8.95;4.97;;;;;;;;;;10389244;28;20038;-79
2023/02/27 09:21:31;;;;;;;9.52;5.18;;;;;;;;;;10380091;28;20030;-81
2023/02/27 09:26:31;;;;;;;33.80;6.82;;;;;;;;;;10375279;28;20026;-79
2023/02/27 09:31:31;;;;;;;15.37;5.33;;;;;;;;;;10388834;28;20038;-81
2023/02/27 09:36:32;;;;;;;14.07;4.73;;;;;;;;;;10373772;28;20022;-76
2023/02/27 09:41:35;;;;;;;10.90;4.80;;;;;;;;;;10366332;28;20030;-80
2023/02/27 09:46:36;;;;;;;15.32;5.43;;;;;;;;;;10376167;28;20057;-78
2023/02/27 09:51:36;;;;;;;11.27;5.47;;;;;;;;;;10365395;28;20029;-77
2023/02/27 09:57:02;;;;;;;8.43;4.63;;;;;;;;;;10384457;28;20037;-77
2023/02/27 10:02:21;;;;;;;15.85;6.22;;;;;;;;;;10364092;28;20038;-78
2023/02/27 10:07:29;;;;;;;11.52;5.03;;;;;;;;;;10387343;28;20033;-77
2023/02/27 10:12:35;;;;;;;17.77;6.30;;;;;;;;;;10363421;28;20099;-74
2023/02/27 10:17:39;;;;;;;9.88;4.95;;;;;;;;;;10364239;28;20026;-82
2023/02/27 10:22:42;;;;;;;15.23;5.47;;;;;;;;;;10353128;28;20403;-73
2023/02/27 10:27:44;;;;;;;9.65;4.53;;;;;;;;;;10368349;28;20030;-80
2023/02/27 10:32:45;;;;;;;9.70;4.88;;;;;;;;;;10366914;28;20109;-71
2023/02/27 10:37:48;;;;;;;11.50;5.88;;;;;;;;;;10363239;28;20392;-76
2023/02/27 10:42:50;;;;;;;21.48;6.35;;;;;;;;;;10363878;28;20033;-74
2023/02/27 10:48:09;;;;;;;14.68;5.63;;;;;;;;;;10367141;28;20050;-78
2023/02/27 10:53:23;;;;;;;20.08;6.53;;;;;;;;;;10365999;28;20113;-76
2023/02/27 10:58:23;;;;;;;12.07;6.50;;;;;;;;;;10361162;28;20048;-75
2023/02/27 11:03:43;;;;;;;14.50;6.60;;;;;;;;;;10363639;28;20034;-81
2023/02/27 11:08:43;;;;;;;14.20;5.90;;;;;;;;;;10361953;28;20818;-76
2023/02/27 11:13:44;;;;;;;25.38;7.65;;;;;;;;;;10362768;28;20100;-76
2023/02/27 11:18:45;;;;;;;15.15;7.43;;;;;;;;;;10366900;28;20022;-75
2023/02/27 11:24:07;;;;;;;16.10;8.55;;;;;;;;;;10361136;28;20481;-76
2023/02/27 11:29:17;;;;;;;14.23;7.28;;;;;;;;;;10359957;28;20018;-76
2023/02/27 11:34:24;;;;;;;17.80;5.80;;;;;;;;;;10383813;28;20604;-74
2023/02/27 11:39:29;;;;;;;19.42;5.40;;;;;;;;;;10362427;28;20052;-76
2023/02/27 11:44:30;;;;;;;10.90;4.15;;;;;;;;;;10363969;28;20048;-75
2023/02/27 11:49:56;;;;;;;12.95;5.55;;;;;;;;;;10365499;28;20049;-74
2023/02/27 11:55:05;;;;;;;10.18;6.22;;;;;;;;;;10375051;28;20025;-76
2023/02/27 12:00:15;;;;;;;12.40;5.45;;;;;;;;;;10387771;28;20521;-75
2023/02/27 12:05:20;;;;;;;31.88;10.18;;;;;;;;;;10378583;28;20144;-78
2023/02/27 12:10:22;;;;;;;19.35;8.23;;;;;;;;;;10360103;28;20451;-76
2023/02/27 12:15:32;;;;;;;20.95;7.90;;;;;;;;;;10357137;28;20041;-73
2023/02/27 12:20:56;;;;;;;15.90;8.43;;;;;;;;;;10380026;28;20038;-74
2023/02/27 12:26:10;;;;;;;17.90;7.95;;;;;;;;;;10357912;28;20105;-75
2023/02/27 12:31:11;;;;;;;21.25;8.23;;;;;;;;;;10357733;28;20022;-74
2023/02/27 12:36:12;;;;;;;16.98;7.82;;;;;;;;;;10358878;28;20026;-78
2023/02/27 12:41:22;;;;;;;13.13;7.60;;;;;;;;;;10379295;28;20033;-77
2023/02/27 12:46:35;;;;;;;17.77;6.93;;;;;;;;;;10375477;28;20085;-75
2023/02/27 12:51:46;;;;;;;25.02;6.65;;;;;;;;;;10354247;28;20472;-76
2023/02/27 12:57:00;;;;;;;19.42;7.68;;;;;;;;;;10373246;28;20030;-76
2023/02/27 13:02:06;;;;;;;21.67;8.65;;;;;;;;;;10378456;28;20077;-78
2023/02/27 13:07:22;;;;;;;15.30;7.32;;;;;;;;;;10373759;28;20026;-77
2023/02/27 13:12:41;;;;;;;20.08;6.72;;;;;;;;;;10376967;28;20026;-72
2023/02/27 13:17:50;;;;;;;16.40;7.47;;;;;;;;;;10394112;28;20044;-76
2023/02/27 13:22:54;;;;;;;11.45;6.15;;;;;;;;;;10354011;28;20033;-74
2023/02/27 13:28:18;;;;;;;16.00;7.05;;;;;;;;;;10379855;28;20460;-79
2023/02/27 13:33:42;;;;;;;24.88;7.70;;;;;;;;;;10361018;28;20152;-74
2023/02/27 13:38:46;;;;;;;19.25;6.13;;;;;;;;;;10369833;28;20081;-76
2023/02/27 13:43:47;;;;;;;21.58;7.32;;;;;;;;;;10357006;28;20017;-77
2023/02/27 13:48:51;;;;;;;17.73;8.40;;;;;;;;;;10376132;28;20057;-75
2023/02/27 13:54:05;;;;;;;21.27;7.32;;;;;;;;;;10373139;28;20128;-74
2023/02/27 13:59:24;;;;;;;14.18;6.70;;;;;;;;;;10371696;28;20113;-75
2023/02/27 14:04:27;;;;;;;17.10;7.38;;;;;;;;;;10357805;28;20479;-75
2023/02/27 14:09:32;;;;;;;15.82;6.97;;;;;;;;;;10368469;28;20114;-76
2023/02/27 14:14:35;;;;;;;14.18;6.70;;;;;;;;;;10367254;28;20025;-75
2023/02/27 14:19:55;;;;;;;16.77;8.00;;;;;;;;;;10393034;28;20549;-81
2023/02/27 14:24:58;;;;;;;14.43;7.70;;;;;;;;;;10387682;28;20033;-75
2023/02/27 14:30:01;;;;;;;15.35;7.15;;;;;;;;;;10394534;28;20030;-80
2023/02/27 14:35:03;;;;;;;14.02;6.82;;;;;;;;;;10379227;28;20030;-73
2023/02/27 14:40:07;;;;;;;26.23;8.05;;;;;;;;;;10362755;28;20480;-79
2023/02/27 14:45:12;;;;;;;19.58;7.53;;;;;;;;;;10369564;28;20273;-77
2023/02/27 14:50:28;;;;;;;19.60;7.63;;;;;;;;;;10365370;28;20422;-80
2023/02/27 14:55:32;;;;;;;18.70;8.68;;;;;;;;;;10374093;28;20029;-73
2023/02/27 15:00:42;;;;;;;21.13;9.35;;;;;;;;;;10365100;28;20446;-76
2023/02/27 15:05:52;;;;;;;19.13;7.32;;;;;;;;;;10365892;28;20033;-76
2023/02/27 15:10:54;;;;;;;12.88;7.57;;;;;;;;;;10364356;28;20423;-73
2023/02/27 15:16:16;;;;;;;15.25;7.80;;;;;;;;;;10385316;28;20084;-79
2023/02/27 15:21:18;;;;;;;17.27;8.60;;;;;;;;;;10374464;28;20045;-74
2023/02/27 15:26:18;;;;;;;19.95;9.50;;;;;;;;;;10364363;28;20124;-79
2023/02/27 15:31:20;;;;;;;18.07;9.93;;;;;;;;;;10359711;28;20040;-74
2023/02/27 15:36:23;;;;;;;17.98;9.75;;;;;;;;;;10360038;28;20032;-78
2023/02/27 15:41:23;;;;;;;18.23;9.48;;;;;;;;;;10362124;28;20033;-75
2023/02/27 15:46:25;;;;;;;19.90;9.20;;;;;;;;;;10361836;28;20062;-83
2023/02/27 15:51:26;;;;;;;21.58;9.75;;;;;;;;;;10357866;28;20139;-77
2023/02/27 15:56:32;;;;;;;22.73;9.75;;;;;;;;;;10363898;28;20115;-74
2023/02/27 16:01:35;;;;;;;23.77;11.40;;;;;;;;;;10361154;28;20569;-77
2023/02/27 16:06:38;;;;;;;17.67;9.70;;;;;;;;;;10360670;28;20499;-76
2023/02/27 16:12:17;;;;;;;24.98;10.15;;;;;;;;;;10359899;28;20026;-72
2023/02/27 16:17:31;;;;;;;22.58;10.15;;;;;;;;;;10379371;28;20133;-82
2023/02/27 16:22:32;;;;;;;17.70;9.32;;;;;;;;;;10361750;28;20037;-71
2023/02/27 16:27:34;;;;;;;19.45;9.77;;;;;;;;;;10402508;22;20199;-79
2023/02/27 16:32:40;;;;;;;19.00;9.80;;;;;;;;;;10383697;28;20068;-76
2023/02/27 16:37:41;;;;;;;21.92;10.30;;;;;;;;;;10410391;28;20567;-77
2023/02/27 16:42:44;;;;;;;17.48;9.38;;;;;;;;;;10409009;28;20057;-82
2023/02/27 16:47:47;;;;;;;21.67;10.27;;;;;;;;;;10411944;28;20040;-80
2023/02/27 16:52:48;;;;;;;18.83;10.15;;;;;;;;;;10422304;28;20422;-76
2023/02/27 16:57:48;;;;;;;20.45;9.90;;;;;;;;;;10392011;28;20034;-73
2023/02/27 17:02:49;;;;;;;16.52;9.93;;;;;;;;;;10351709;28;20079;-77
2023/02/27 17:07:50;;;;;;;19.30;9.80;;;;;;;;;;10385944;28;20111;-82
2023/02/27 17:12:50;;;;;;;17.83;10.80;;;;;;;;;;10424384;28;20040;-75
2023/02/27 17:17:51;;;;;;;21.95;11.07;;;;;;;;;;10385998;28;20033;-77
2023/02/27 17:22:51;;;;;;;28.67;10.30;;;;;;;;;;10382333;28;20029;-79
2023/02/27 17:27:53;;;;;;;24.73;11.73;;;;;;;;;;10380882;28;20049;-75
2023/02/27 17:32:53;;;;;;;25.50;12.13;;;;;;;;;;10384207;28;20045;-76
2023/02/27 17:37:54;;;;;;;28.17;11.80;;;;;;;;;;10406175;28;20030;-75
2023/02/27 17:42:54;;;;;;;22.20;10.88;;;;;;;;;;10405608;28;20403;-75
2023/02/27 17:47:55;;;;;;;21.98;9.80;;;;;;;;;;10372829;28;20025;-76
2023/02/27 17:53:10;;;;;;;20.67;9.68;;;;;;;;;;10391695;28;20132;-76
2023/02/27 17:58:10;;;;;;;17.75;9.35;;;;;;;;;;10400119;28;20021;-81
2023/02/27 18:03:12;;;;;;;19.02;9.52;;;;;;;;;;10410961;28;20033;-77
2023/02/27 18:08:12;;;;;;;28.85;12.77;;;;;;;;;;10385169;28;20021;-79
2023/02/27 18:13:12;;;;;;;21.90;12.68;;;;;;;;;;10382718;28;20025;-77
2023/02/27 18:23:51;;;;;;;28.08;14.02;;;;;;;;;;10405047;28;20021;-75
2023/02/27 18:28:52;;;;;;;30.63;14.13;;;;;;;;;;10387679;28;20078;-73
2023/02/27 18:34:14;;;;;;;28.17;13.20;;;;;;;;;;10439717;22;20041;-71
2023/02/27 18:39:15;;;;;;;31.42;13.48;;;;;;;;;;10439437;28;20032;-77
2023/02/27 18:44:18;;;;;;;25.98;12.38;;;;;;;;;;10440759;28;20511;-77
2023/02/27 18:49:19;;;;;;;33.30;15.85;;;;;;;;;;10447373;28;20658;-79
2023/02/27 18:54:19;;;;;;;36.92;17.15;;;;;;;;;;10444917;28;20128;-74
2023/02/27 18:59:20;;;;;;;32.67;14.73;;;;;;;;;;10424366;28;20047;-74
2023/02/27 19:04:20;;;;;;;29.02;14.18;;;;;;;;;;10441356;28;20894;-76
2023/02/27 19:09:39;;;;;;;32.15;16.27;;;;;;;;;;10449739;28;20067;-77
2023/02/27 19:14:45;;;;;;;36.17;16.23;;;;;;;;;;10442701;28;20115;-76
2023/02/27 19:19:46;;;;;;;29.45;14.68;;;;;;;;;;10443026;28;20032;-75
2023/02/27 19:24:46;;;;;;;32.15;17.13;;;;;;;;;;10439450;28;20040;-74
2023/02/27 19:30:02;;;;;;;35.25;17.13;;;;;;;;;;10386781;28;20048;-76
2023/02/27 19:35:03;;;;;;;32.92;16.45;;;;;;;;;;10397099;28;20041;-76
2023/02/27 19:40:03;;;;;;;34.60;16.52;;;;;;;;;;10406688;28;20487;-75
2023/02/27 19:45:04;;;;;;;34.80;15.85;;;;;;;;;;10405874;28;20017;-73
2023/02/27 19:50:05;;;;;;;42.75;17.65;;;;;;;;;;10400622;28;20067;-78
2023/02/27 19:55:06;;;;;;;37.33;16.38;;;;;;;;;;10411484;28;20026;-74
2023/02/27 20:00:12;;;;;;;35.80;15.30;;;;;;;;;;10419353;28;20021;-79
2023/02/27 20:05:12;;;;;;;34.65;15.50;;;;;;;;;;10422394;28;20021;-74
2023/02/27 20:10:13;;;;;;;44.17;18.85;;;;;;;;;;10405432;28;20033;-79
2023/02/27 20:15:36;;;;;;;40.10;18.60;;;;;;;;;;10406450;28;20059;-78
2023/02/27 20:21:02;;;;;;;42.93;19.87;;;;;;;;;;10409451;28;20144;-76
2023/02/27 20:26:22;;;;;;;44.92;19.42;;;;;;;;;;10417257;28;20022;-76
2023/02/27 20:31:24;;;;;;;53.80;19.92;;;;;;;;;;10410538;28;20052;-73
2023/02/27 20:36:24;;;;;;;38.60;20.50;;;;;;;;;;10410851;28;20517;-74
2023/02/27 20:41:54;;;;;;;49.03;22.17;;;;;;;;;;10385151;28;20055;-80
2023/02/27 20:46:54;;;;;;;50.00;23.25;;;;;;;;;;10381607;28;20051;-77
2023/02/27 20:51:55;;;;;;;47.83;19.77;;;;;;;;;;10384890;28;20511;-77
2023/02/27 20:56:58;;;;;;;41.20;20.27;;;;;;;;;;10400246;28;20079;-71
2023/02/27 21:02:00;;;;;;;43.10;19.98;;;;;;;;;;10406520;28;20021;-78
2023/02/27 21:07:02;;;;;;;36.25;17.10;;;;;;;;;;10402139;28;20392;-78
2023/02/27 21:12:03;;;;;;;34.55;17.25;;;;;;;;;;10397453;28;20498;-77
2023/02/27 21:17:04;;;;;;;34.28;15.68;;;;;;;;;;10392823;28;20029;-77
2023/02/27 21:22:04;;;;;;;33.25;13.48;;;;;;;;;;10402120;28;20072;-77
2023/02/27 21:27:05;;;;;;;33.00;16.83;;;;;;;;;;10402514;28;20026;-78
2023/02/27 21:32:06;;;;;;;33.58;16.15;;;;;;;;;;10398669;28;20049;-78
2023/02/27 21:37:08;;;;;;;43.63;17.42;;;;;;;;;;10404904;28;20067;-78
2023/02/27 21:42:10;;;;;;;46.83;19.13;;;;;;;;;;10418263;28;20384;-77
2023/02/27 21:47:10;;;;;;;42.97;18.67;;;;;;;;;;10394067;28;20108;-77
2023/02/27 21:52:11;;;;;;;35.70;16.33;;;;;;;;;;10399691;28;20112;-76
2023/02/27 21:57:11;;;;;;;28.25;14.07;;;;;;;;;;10420953;28;20047;-79
2023/02/27 22:02:12;;;;;;;25.20;12.95;;;;;;;;;;10407119;28;20028;-77
2023/02/27 22:07:12;;;;;;;27.77;12.38;;;;;;;;;;10401563;28;20489;-79
2023/02/27 22:12:17;;;;;;;23.33;10.65;;;;;;;;;;10400273;28;20042;-83
2023/02/27 22:17:17;;;;;;;30.77;13.10;;;;;;;;;;10424896;28;20446;-71
2023/02/27 22:22:18;;;;;;;28.63;13.27;;;;;;;;;;10427511;28;20263;-75
2023/02/27 22:27:18;;;;;;;41.55;15.80;;;;;;;;;;10404984;28;20028;-78
2023/02/27 22:32:23;;;;;;;35.67;16.45;;;;;;;;;;10420650;28;20079;-80
2023/02/27 22:37:23;;;;;;;39.65;16.75;;;;;;;;;;10413364;28;20451;-76
2023/02/27 22:42:23;;;;;;;31.30;15.60;;;;;;;;;;10407798;28;20088;-81
2023/02/27 22:47:23;;;;;;;38.13;17.27;;;;;;;;;;10403134;28;20283;-75
2023/02/27 22:53:01;;;;;;;35.22;17.77;;;;;;;;;;10405041;28;20029;-74
2023/02/27 22:58:03;;;;;;;33.30;14.82;;;;;;;;;;10415949;28;20505;-73
2023/02/27 23:03:05;;;;;;;31.13;16.42;;;;;;;;;;10413585;28;20028;-77
2023/02/27 23:08:05;;;;;;;30.67;17.52;;;;;;;;;;10401090;28;20029;-75
2023/02/27 23:13:06;;;;;;;37.92;18.23;;;;;;;;;;10407348;28;20021;-75
2023/02/27 23:18:08;;;;;;;37.92;18.77;;;;;;;;;;10403311;28;20035;-77
2023/02/27 23:23:09;;;;;;;35.80;16.33;;;;;;;;;;10394684;28;20499;-75
2023/02/27 23:28:10;;;;;;;36.95;15.15;;;;;;;;;;10403638;28;20040;-76
2023/02/27 23:38:50;;;;;;;34.67;14.95;;;;;;;;;;10382178;28;20052;-72
2023/02/27 23:49:11;;;;;;;34.75;15.68;;;;;;;;;;10403708;28;20056;-77
2023/02/27 23:54:14;;;;;;;43.30;17.83;;;;;;;;;;10404570;28;20420;-78
2023/02/27 23:59:14;;;;;;;42.42;19.05;;;;;;;;;;10403319;28;20109;-75
